Flight Information

DEPARTURE
PASCO, WA
Elevation:
410
Runways:
12/30 - 7704x150 - ASPH-G
3L/21R - 7707x150 - ASPH-G
3R/21L - 4423x75 - ASPH-F
ATIS:
125.65
Clearance Delivery:
120
Ground:
121.8
Tower:
TRI-CITIES TOWER 135.3
DESTINATION
PALM SPRINGS, CA
Elevation:
73
TPA:
1073 (est.)
Runways:
10/28 - 5002x70 - ASPH-G
CTAF:
122.800


762.1 NM169° True-19° Var150° HDG

Flight Plan:
(click to file on line)

1. Type
2. Aircraft Identification
3. Aircraft Type / Special Equipment
4. True Airspeed
kts
5. Departure Airport
(ICAO code)
6. Arriving Airport
(ICAO code)
7. Cruising Altitude
ft
8. Alternate Airport
(ICAO code)
9. Route of Flight
10. Remarks


00:00:00 Departure ATIS: Destination ATIS:

Clearance Limit:
Route:
Altitude: Expect in minutes
Frequency:
Transponder: (7500 Hijack / 7600 Lost Comms / 7700 Emergency)


KPSC 110353Z 32013KT 10SM CLR 06/M08 A3023 RMK AO2 SLP237 T00611078
Time: 2021-04-11T03:53:00Z
1618115503
Winds: 320 @ 13 kts
Visibility: 10.0 sm
Clouds (AGL): CLR
Temperature: 6.1 C
Dew Point: -7.8 C
Pressure: 30.230314 in Hgbr

KPSP 110353Z 31011KT 10SM CLR 29/07 A2970 RMK AO2 SLP052 T02890072
Time: 2021-04-11T03:53:00Z
1618115503
Winds: 310 @ 11 kts
Visibility: 10.0 sm
Clouds (AGL): CLR
Temperature: 28.9 C
Dew Point: 7.2 C
Pressure: 29.698818 in Hgbr


Notes:

Data extracted from FAA Digital Chart Supplement. Effective: 0901Z Thursday, Feb 25, 2021 to 0901Z Thursday, APR 22, 2021
Current ATIS data is provided courtisy of PilotEdge.